createdAt,value
2023-01-22T00:01:16.729Z,5.61
2023-01-22T00:04:02.306Z,5.95
2023-01-22T00:06:38.517Z,5.63
2023-01-22T00:09:08.034Z,5.52
2023-01-22T00:11:43.474Z,5.86
2023-01-22T00:14:12.908Z,5.68
2023-01-22T00:16:39.557Z,5.64
2023-01-22T00:19:08.719Z,5.91
2023-01-22T00:21:35.754Z,5.61
2023-01-22T00:24:09.318Z,5.80
2023-01-22T00:26:49.505Z,5.91
2023-01-22T00:29:20.843Z,6.29
2023-01-22T00:32:12.516Z,5.82
2023-01-22T00:37:32.186Z,6.18
2023-01-22T00:37:58.703Z,5.81
2023-01-22T00:39:58.753Z,6.28
2023-01-22T00:42:28.586Z,6.14
2023-01-22T00:45:06.756Z,6.06
2023-01-22T00:50:30.323Z,5.74
2023-01-22T00:53:09.873Z,5.74
2023-01-22T00:55:36.446Z,5.87
2023-01-22T00:58:09.229Z,5.56
2023-01-22T01:00:38.517Z,5.24
2023-01-22T01:03:05.205Z,5.34
2023-01-22T01:05:34.627Z,5.41
2023-01-22T01:08:06.929Z,5.09
2023-01-22T01:10:36.288Z,4.95
2023-01-22T01:13:02.868Z,4.92
2023-01-22T01:15:35.291Z,4.84
2023-01-22T01:18:06.551Z,4.72
2023-01-22T01:20:34.113Z,4.72
2023-01-22T01:26:12.091Z,4.73
2023-01-22T01:28:58.619Z,4.76
2023-01-22T01:31:28.421Z,4.86
2023-01-22T01:33:55.268Z,4.83
2023-01-22T01:36:48.644Z,4.71
2023-01-22T01:39:20.457Z,4.72
2023-01-22T01:41:47.166Z,4.92
2023-01-22T01:44:37.764Z,4.79
2023-01-22T01:47:31.914Z,4.69
2023-01-22T01:50:12.437Z,4.76
2023-01-22T01:52:49.361Z,4.72
2023-01-22T01:55:39.477Z,4.71
2023-01-22T01:58:14.394Z,4.75
2023-01-22T02:00:58.070Z,4.64
2023-01-22T02:03:27.252Z,4.57
2023-01-22T02:05:56.844Z,4.71
2023-01-22T02:08:26.527Z,4.48
2023-01-22T02:10:53.987Z,4.62
2023-01-22T02:13:29.051Z,4.34
2023-01-22T02:15:56.092Z,4.40
2023-01-22T02:18:22.711Z,4.39
2023-01-22T02:21:03.202Z,4.40
2023-01-22T02:26:17.902Z,4.51
2023-01-22T02:28:44.459Z,4.39
2023-01-22T02:31:11.151Z,4.58
2023-01-22T02:33:37.781Z,4.52
2023-01-22T02:36:04.664Z,4.52
2023-01-22T02:38:40.048Z,4.57
2023-01-22T02:41:08.969Z,4.49
2023-01-22T02:43:41.556Z,4.89
2023-01-22T02:46:08.176Z,4.62
2023-01-22T02:48:34.809Z,4.66
2023-01-22T02:51:05.129Z,4.79
2023-01-22T02:53:32.004Z,4.85
2023-01-22T02:55:58.629Z,4.80
2023-01-22T02:58:34.842Z,4.89
2023-01-22T03:01:17.048Z,5.19
2023-01-22T03:03:46.723Z,5.47
2023-01-22T03:06:18.142Z,5.20
2023-01-22T03:08:44.790Z,5.30
2023-01-22T03:11:11.622Z,5.22
2023-01-22T03:13:47.193Z,5.28
2023-01-22T03:16:16.353Z,5.56
2023-01-22T03:18:50.067Z,5.24
2023-01-22T03:21:22.701Z,5.26
2023-01-22T03:26:36.851Z,5.38
2023-01-22T03:29:03.576Z,5.29
2023-01-22T03:31:30.227Z,5.35
2023-01-22T03:33:59.855Z,5.20
2023-01-22T03:36:31.563Z,5.30
2023-01-22T03:39:20.753Z,5.19
2023-01-22T03:42:12.181Z,5.42
2023-01-22T03:44:38.782Z,5.69
2023-01-22T03:47:06.272Z,5.53
2023-01-22T03:52:22.361Z,5.17
2023-01-22T03:54:48.998Z,5.18
2023-01-22T03:57:15.588Z,5.09
2023-01-22T03:59:42.204Z,5.14
2023-01-22T04:02:08.797Z,5.07
2023-01-22T04:04:37.653Z,5.40
2023-01-22T04:07:04.239Z,5.31
2023-01-22T04:09:30.821Z,5.19
2023-01-22T04:11:57.409Z,4.93
2023-01-22T04:14:23.993Z,5.32
2023-01-22T04:17:05.674Z,5.25
2023-01-22T04:19:34.885Z,5.55
2023-01-22T04:22:01.496Z,5.44
2023-01-22T04:24:39.668Z,5.51
2023-01-22T04:27:06.255Z,5.79
2023-01-22T04:29:32.872Z,5.42
2023-01-22T04:32:01.981Z,5.49
2023-01-22T04:34:36.268Z,5.49
2023-01-22T04:37:09.816Z,5.32
2023-01-22T04:39:36.433Z,5.78
2023-01-22T04:42:05.836Z,5.46
2023-01-22T04:44:34.982Z,5.35
2023-01-22T04:47:10.858Z,5.47
2023-01-22T04:49:40.487Z,5.44
2023-01-22T04:52:07.065Z,5.21
2023-01-22T04:54:36.752Z,5.48
2023-01-22T04:57:03.485Z,5.26
2023-01-22T04:59:30.069Z,5.48
2023-01-22T05:02:02.751Z,5.50
2023-01-22T05:04:29.363Z,5.27
2023-01-22T05:06:55.952Z,5.25
2023-01-22T05:09:22.508Z,5.31
2023-01-22T05:11:55.432Z,5.31
2023-01-22T05:17:10.265Z,5.24
2023-01-22T05:22:34.602Z,5.68
2023-01-22T05:25:01.235Z,5.42
2023-01-22T05:27:27.936Z,5.71
2023-01-22T05:32:37.958Z,5.49
2023-01-22T05:35:15.692Z,5.54
2023-01-22T05:37:42.292Z,5.83
2023-01-22T05:40:09.202Z,5.68
2023-01-22T05:42:37.132Z,5.41
2023-01-22T05:45:08.580Z,5.61
2023-01-22T05:47:37.914Z,6.16
2023-01-22T05:50:04.850Z,6.26
2023-01-22T05:52:31.432Z,5.63
2023-01-22T05:54:58.008Z,5.49
2023-01-22T05:57:24.672Z,5.31
2023-01-22T06:00:00.372Z,5.62
2023-01-22T06:02:32.739Z,5.24
2023-01-22T06:05:12.714Z,5.30
2023-01-22T06:07:52.468Z,5.50
2023-01-22T06:10:30.387Z,5.46
2023-01-22T06:12:59.229Z,5.48
2023-01-22T06:15:32.950Z,5.30
2023-01-22T06:18:19.473Z,5.53
2023-01-22T06:20:46.066Z,5.53
2023-01-22T06:23:32.028Z,5.29
2023-01-22T06:26:11.544Z,5.43
2023-01-22T06:28:38.179Z,5.45
2023-01-22T06:31:05.014Z,5.54
2023-01-22T06:33:38.782Z,5.50
2023-01-22T06:36:21.048Z,5.47
2023-01-22T06:38:47.489Z,5.75
2023-01-22T06:41:14.086Z,5.59
2023-01-22T06:43:45.387Z,5.54
2023-01-22T06:46:12.011Z,5.37
2023-01-22T06:48:38.637Z,5.42
2023-01-22T06:51:05.405Z,5.26
2023-01-22T06:53:32.025Z,5.08
2023-01-22T06:56:02.224Z,5.28
2023-01-22T06:58:29.211Z,5.07
2023-01-22T07:01:09.264Z,5.16
2023-01-22T07:03:40.899Z,4.93
2023-01-22T07:06:09.503Z,5.03
2023-01-22T07:08:47.731Z,4.91
2023-01-22T07:11:14.337Z,5.26
2023-01-22T07:13:44.115Z,5.12
2023-01-22T07:19:08.454Z,5.00
2023-01-22T07:21:38.248Z,4.91
2023-01-22T07:24:07.926Z,4.95
2023-01-22T07:26:35.216Z,5.15
2023-01-22T07:29:14.487Z,5.26
2023-01-22T07:31:44.068Z,5.24
2023-01-22T07:34:13.778Z,5.36
2023-01-22T07:36:56.990Z,5.37
2023-01-22T07:39:23.852Z,5.23
2023-01-22T07:41:50.780Z,5.37
2023-01-22T07:44:26.051Z,5.31
2023-01-22T07:46:52.789Z,5.21
2023-01-22T07:49:25.523Z,5.22
2023-01-22T07:51:53.249Z,5.31
2023-01-22T07:54:22.782Z,5.16
2023-01-22T07:56:52.172Z,5.15
2023-01-22T07:59:29.594Z,5.25
2023-01-22T08:02:06.654Z,5.20
2023-01-22T08:04:40.563Z,5.25
2023-01-22T08:07:15.517Z,5.32
2023-01-22T08:09:42.111Z,5.20
2023-01-22T08:12:24.965Z,5.32
2023-01-22T08:14:53.799Z,5.59
2023-01-22T08:17:20.395Z,5.70
2023-01-22T08:20:04.431Z,5.36
2023-01-22T08:22:32.783Z,5.31
2023-01-22T08:25:12.921Z,5.48
2023-01-22T08:27:50.193Z,5.27
2023-01-22T08:30:18.264Z,5.32
2023-01-22T08:32:45.058Z,5.33
2023-01-22T08:35:24.432Z,5.44
2023-01-22T08:38:01.239Z,5.29
2023-01-22T08:40:33.967Z,5.40
2023-01-22T08:43:07.185Z,5.49
2023-01-22T08:45:34.201Z,5.29
2023-01-22T08:48:20.112Z,5.38
2023-01-22T08:51:02.051Z,5.43
2023-01-22T08:53:37.522Z,5.37
2023-01-22T08:56:04.973Z,5.58
2023-01-22T08:58:37.416Z,5.49
2023-01-22T09:01:09.123Z,5.38
2023-01-22T09:03:38.525Z,5.55
2023-01-22T09:06:05.297Z,5.44
2023-01-22T09:08:48.313Z,5.60
2023-01-22T09:11:18.568Z,5.53
2023-01-22T09:13:45.516Z,5.60
2023-01-22T09:16:12.205Z,5.60
2023-01-22T09:18:39.919Z,5.66
2023-01-22T09:21:07.301Z,5.76
2023-01-22T09:23:42.019Z,5.67
2023-01-22T09:26:09.207Z,5.52
2023-01-22T09:28:36.307Z,5.56
2023-01-22T09:31:04.063Z,5.56
2023-01-22T09:33:41.767Z,5.53
2023-01-22T09:36:25.520Z,5.73
2023-01-22T09:38:53.928Z,5.67
2023-01-22T09:41:28.441Z,5.76
2023-01-22T09:43:59.873Z,5.80
2023-01-22T09:46:33.227Z,5.76
2023-01-22T09:49:27.781Z,5.87
2023-01-22T09:52:08.182Z,5.84
2023-01-22T09:54:43.891Z,5.73
2023-01-22T09:57:31.145Z,5.80
2023-01-22T09:59:59.529Z,5.81
2023-01-22T10:02:58.063Z,5.84
2023-01-22T10:05:45.740Z,5.83
2023-01-22T10:08:17.862Z,6.00
2023-01-22T10:10:46.879Z,6.02
2023-01-22T10:13:49.837Z,5.97
2023-01-22T10:16:25.873Z,5.96
2023-01-22T10:19:05.721Z,5.97
2023-01-22T10:21:45.985Z,6.10
2023-01-22T10:24:37.503Z,6.09
2023-01-22T10:27:13.481Z,6.06
2023-01-22T10:29:40.320Z,6.08
2023-01-22T10:32:36.549Z,6.13
2023-01-22T10:35:12.022Z,6.10
2023-01-22T10:38:35.578Z,6.12
2023-01-22T10:41:04.302Z,6.16
2023-01-22T10:43:41.884Z,6.14
2023-01-22T10:46:31.205Z,6.07
2023-01-22T10:49:18.161Z,6.13
2023-01-22T10:52:01.585Z,6.16
2023-01-22T10:57:51.386Z,6.29
2023-01-22T11:00:21.925Z,6.16
2023-01-22T11:03:00.748Z,6.10
2023-01-22T11:05:47.795Z,6.13
2023-01-22T11:08:38.294Z,6.15
2023-01-22T11:11:11.169Z,6.28
2023-01-22T11:14:08.513Z,6.13
2023-01-22T11:16:46.554Z,6.10
2023-01-22T11:19:38.771Z,6.15
2023-01-22T11:22:50.415Z,6.12
2023-01-22T11:25:20.047Z,6.14
2023-01-22T11:28:19.238Z,6.18
2023-01-22T11:31:13.894Z,6.13
2023-01-22T11:34:26.826Z,6.19
2023-01-22T11:37:13.668Z,6.09
2023-01-22T11:40:11.740Z,5.97
2023-01-22T11:43:02.807Z,5.95
2023-01-22T11:45:58.442Z,5.98
2023-01-22T11:51:56.849Z,6.17
2023-01-22T11:54:36.422Z,6.30
2023-01-22T11:57:34.848Z,6.18
2023-01-22T12:00:36.222Z,6.21
2023-01-22T12:03:26.236Z,6.15
2023-01-22T12:06:40.496Z,6.11
2023-01-22T12:09:16.340Z,6.05
2023-01-22T12:12:19.555Z,5.96
2023-01-22T12:14:49.516Z,5.92
2023-01-22T12:17:44.005Z,5.99
2023-01-22T12:20:59.594Z,6.04
2023-01-22T12:23:39.574Z,6.00
2023-01-22T12:26:20.748Z,6.22
2023-01-22T12:29:28.189Z,6.27
2023-01-22T12:32:17.210Z,6.58
2023-01-22T12:35:09.713Z,6.73
2023-01-22T12:37:52.466Z,6.85
2023-01-22T12:40:37.095Z,6.58
2023-01-22T12:43:25.651Z,6.51
2023-01-22T12:46:50.878Z,6.52
2023-01-22T12:52:14.237Z,6.44
2023-01-22T12:55:09.103Z,6.66
2023-01-22T12:57:50.596Z,6.64
2023-01-22T13:01:01.180Z,6.62
2023-01-22T13:03:46.645Z,6.88
2023-01-22T13:06:41.847Z,6.81
2023-01-22T13:09:42.024Z,7.04
2023-01-22T13:12:10.852Z,7.04
2023-01-22T13:14:41.285Z,6.99
2023-01-22T13:17:23.427Z,7.00
2023-01-22T13:20:07.926Z,6.98
2023-01-22T13:22:51.611Z,6.92
2023-01-22T13:25:51.267Z,7.07
2023-01-22T13:28:37.725Z,7.08
2023-01-22T13:31:22.683Z,7.07
2023-01-22T13:34:11.171Z,7.13
2023-01-22T13:36:45.641Z,7.11
2023-01-22T13:40:20.231Z,6.97
2023-01-22T13:42:32.232Z,6.91
2023-01-22T13:45:43.460Z,6.87
2023-01-22T13:48:34.610Z,6.83
2023-01-22T13:51:29.950Z,6.82
2023-01-22T13:54:09.149Z,6.77
2023-01-22T13:56:55.527Z,6.99
2023-01-22T13:59:44.912Z,6.92
2023-01-22T14:02:37.043Z,6.88
2023-01-22T14:05:38.560Z,6.80
2023-01-22T14:08:27.311Z,6.92
2023-01-22T14:11:30.124Z,6.89
2023-01-22T14:14:02.775Z,6.80
2023-01-22T14:16:57.778Z,6.84
2023-01-22T14:19:40.835Z,7.17
2023-01-22T14:22:23.517Z,6.87
2023-01-22T14:25:00.342Z,6.97
2023-01-22T14:27:42.034Z,6.94
2023-01-22T14:30:20.840Z,6.82
2023-01-22T14:32:47.612Z,6.85
2023-01-22T14:35:25.148Z,6.89
2023-01-22T14:37:57.478Z,6.65
2023-01-22T14:40:40.311Z,6.40
2023-01-22T14:43:10.110Z,6.62
2023-01-22T14:45:46.830Z,6.48
2023-01-22T14:48:24.920Z,6.33
2023-01-22T14:51:07.906Z,6.24
2023-01-22T14:53:46.297Z,6.48
2023-01-22T14:56:12.907Z,6.59
2023-01-22T14:58:41.833Z,6.43
2023-01-22T15:01:23.784Z,6.48
2023-01-22T15:04:07.432Z,6.56
2023-01-22T15:06:45.845Z,6.47
2023-01-22T15:09:15.421Z,6.30
2023-01-22T15:11:44.606Z,6.30
2023-01-22T15:14:18.080Z,6.19
2023-01-22T15:17:04.189Z,6.20
2023-01-22T15:19:40.761Z,6.18
2023-01-22T15:22:08.018Z,6.23
2023-01-22T15:24:39.033Z,6.16
2023-01-22T15:27:08.629Z,6.23
2023-01-22T15:29:45.382Z,6.30
2023-01-22T15:32:22.996Z,6.68
2023-01-22T15:34:56.134Z,6.57
2023-01-22T15:37:30.944Z,6.75
2023-01-22T15:40:02.203Z,6.81
2023-01-22T15:42:35.380Z,6.90
2023-01-22T15:45:05.047Z,6.81
2023-01-22T15:47:31.747Z,6.94
2023-01-22T15:50:05.737Z,6.73
2023-01-22T15:52:49.010Z,6.76
2023-01-22T15:55:21.870Z,6.65
2023-01-22T15:57:48.452Z,6.57
2023-01-22T16:00:19.514Z,6.75
2023-01-22T16:02:46.388Z,6.54
2023-01-22T16:05:12.963Z,6.76
2023-01-22T16:07:39.556Z,6.43
2023-01-22T16:10:06.265Z,6.52
2023-01-22T16:12:41.671Z,6.36
2023-01-22T16:15:08.590Z,6.23
2023-01-22T16:17:37.959Z,6.29
2023-01-22T16:20:07.604Z,6.15
2023-01-22T16:22:36.484Z,6.12
2023-01-22T16:25:14.371Z,6.29
2023-01-22T16:27:40.971Z,6.29
2023-01-22T16:30:11.049Z,6.32
2023-01-22T16:32:40.074Z,6.32
2023-01-22T16:35:22.306Z,6.53
2023-01-22T16:37:49.162Z,6.36
2023-01-22T16:40:15.916Z,6.23
2023-01-22T16:42:58.548Z,6.44
2023-01-22T16:45:25.185Z,6.42
2023-01-22T16:48:00.161Z,6.47
2023-01-22T16:50:32.548Z,6.41
2023-01-22T16:53:00.144Z,6.49
2023-01-22T16:55:50.632Z,6.34
2023-01-22T16:58:17.223Z,6.18
2023-01-22T17:00:53.795Z,6.42
2023-01-22T17:03:30.488Z,6.21
2023-01-22T17:06:03.850Z,6.18
2023-01-22T17:08:32.682Z,6.16
2023-01-22T17:11:06.435Z,6.10
2023-01-22T17:13:42.272Z,6.07
2023-01-22T17:16:10.053Z,6.30
2023-01-22T17:18:43.691Z,6.46
2023-01-22T17:21:18.903Z,6.32
2023-01-22T17:23:45.876Z,6.23
2023-01-22T17:26:18.403Z,6.27
2023-01-22T17:28:46.901Z,6.39
2023-01-22T17:31:17.647Z,6.39
2023-01-22T17:33:54.408Z,6.42
2023-01-22T17:36:23.663Z,6.29
2023-01-22T17:39:05.418Z,6.24
2023-01-22T17:41:36.816Z,6.51
2023-01-22T17:44:03.537Z,6.55
2023-01-22T17:46:39.896Z,6.60
2023-01-22T17:49:16.916Z,6.66
2023-01-22T17:51:46.824Z,6.61
2023-01-22T17:54:13.426Z,6.43
2023-01-22T17:56:59.112Z,6.60
2023-01-22T17:59:25.764Z,6.34
2023-01-22T18:01:54.796Z,6.55
2023-01-22T18:04:29.397Z,6.39
2023-01-22T18:06:56.009Z,6.57
2023-01-22T18:09:25.771Z,6.37
2023-01-22T18:11:59.709Z,6.42
2023-01-22T18:14:26.478Z,6.35
2023-01-22T18:16:55.319Z,6.09
2023-01-22T18:19:21.904Z,6.07
2023-01-22T18:21:49.305Z,6.13
2023-01-22T18:24:16.256Z,6.03
2023-01-22T18:26:45.655Z,5.94
2023-01-22T18:29:12.219Z,5.92
2023-01-22T18:31:48.434Z,5.88
2023-01-22T18:34:15.667Z,5.84
2023-01-22T18:36:42.238Z,5.88
2023-01-22T18:39:15.287Z,5.83
2023-01-22T18:41:42.460Z,5.82
2023-01-22T18:44:10.098Z,5.89
2023-01-22T18:46:37.473Z,5.77
2023-01-22T18:49:06.730Z,5.80
2023-01-22T18:51:33.659Z,5.75
2023-01-22T18:54:02.812Z,6.00
2023-01-22T18:56:31.604Z,5.91
2023-01-22T18:58:58.748Z,5.82
2023-01-22T19:01:34.401Z,6.07
2023-01-22T19:04:03.669Z,5.83
2023-01-22T19:06:36.924Z,5.73
2023-01-22T19:09:11.619Z,5.74
2023-01-22T19:11:39.813Z,5.77
2023-01-22T19:14:09.389Z,6.02
2023-01-22T19:16:37.631Z,5.95
2023-01-22T19:19:10.287Z,6.13
2023-01-22T19:21:46.056Z,6.15
2023-01-22T19:24:13.820Z,6.12
2023-01-22T19:26:41.889Z,6.09
2023-01-22T19:29:16.300Z,6.17
2023-01-22T19:31:51.042Z,6.14
2023-01-22T19:34:22.496Z,6.17
2023-01-22T19:36:55.721Z,6.12
2023-01-22T19:39:35.672Z,6.15
2023-01-22T19:42:03.234Z,6.09
2023-01-22T19:44:37.299Z,5.93
2023-01-22T19:47:06.628Z,5.96
2023-01-22T19:49:44.795Z,6.10
2023-01-22T19:52:23.069Z,6.07
2023-01-22T19:54:55.698Z,6.11
2023-01-22T19:57:22.316Z,5.91
2023-01-22T20:00:08.866Z,6.02
2023-01-22T20:02:50.134Z,6.00
2023-01-22T20:08:08.579Z,6.15
2023-01-22T20:10:44.707Z,6.11
2023-01-22T20:13:11.831Z,5.95
2023-01-22T20:15:42.500Z,6.02
2023-01-22T20:18:12.537Z,6.07
2023-01-22T20:20:51.185Z,5.97
2023-01-22T20:23:21.090Z,5.91
2023-01-22T20:25:49.171Z,5.88
2023-01-22T20:28:19.688Z,5.81
2023-01-22T20:31:03.419Z,5.87
2023-01-22T20:33:32.540Z,5.91
2023-01-22T20:36:08.797Z,5.93
2023-01-22T20:38:41.420Z,6.02
2023-01-22T20:41:11.545Z,6.02
2023-01-22T20:43:50.813Z,5.91
2023-01-22T20:49:13.447Z,5.77
2023-01-22T20:51:46.652Z,5.76
2023-01-22T20:54:13.273Z,5.66
2023-01-22T20:56:47.861Z,5.52
2023-01-22T20:59:28.523Z,5.65
2023-01-22T21:01:55.135Z,5.75
2023-01-22T21:04:24.053Z,5.66
2023-01-22T21:06:54.534Z,5.71
2023-01-22T21:09:27.217Z,5.61
2023-01-22T21:11:56.988Z,5.68
2023-01-22T21:14:23.876Z,5.57
2023-01-22T21:16:50.460Z,5.64
2023-01-22T21:19:22.501Z,5.61
2023-01-22T21:21:53.608Z,5.53
2023-01-22T21:24:20.416Z,5.49
2023-01-22T21:26:47.042Z,5.49
2023-01-22T21:29:16.799Z,5.48
2023-01-22T21:31:48.009Z,5.41
2023-01-22T21:34:22.362Z,5.47
2023-01-22T21:36:50.542Z,5.61
2023-01-22T21:39:19.731Z,5.58
2023-01-22T21:41:47.201Z,5.60
2023-01-22T21:44:29.501Z,5.60
2023-01-22T21:47:08.039Z,5.58
2023-01-22T21:49:42.377Z,5.50
2023-01-22T21:52:09.110Z,5.54
2023-01-22T21:54:39.593Z,5.57
2023-01-22T21:57:11.394Z,5.72
2023-01-22T21:59:38.052Z,5.88
2023-01-22T22:02:11.436Z,5.94
2023-01-22T22:04:43.582Z,5.72
2023-01-22T22:07:12.562Z,5.98
2023-01-22T22:09:39.147Z,5.67
2023-01-22T22:12:11.604Z,5.65
2023-01-22T22:14:40.903Z,5.74
2023-01-22T22:17:07.688Z,5.66
2023-01-22T22:19:36.840Z,5.56
2023-01-22T22:22:07.940Z,5.46
2023-01-22T22:24:38.833Z,5.48
2023-01-22T22:27:11.425Z,5.56
2023-01-22T22:29:41.887Z,5.73
2023-01-22T22:32:11.261Z,6.06
2023-01-22T22:34:47.409Z,5.81
2023-01-22T22:37:16.910Z,5.87
2023-01-22T22:39:51.622Z,6.04
2023-01-22T22:42:18.340Z,5.77
2023-01-22T22:44:53.253Z,6.17
2023-01-22T22:47:19.969Z,5.75
2023-01-22T22:49:53.324Z,5.73
2023-01-22T22:52:27.637Z,5.73
2023-01-22T22:55:12.685Z,6.24
2023-01-22T22:58:09.375Z,6.03
2023-01-22T23:00:37.587Z,6.19
2023-01-22T23:03:15.438Z,5.67
2023-01-22T23:05:45.867Z,5.47
2023-01-22T23:08:18.431Z,5.37
2023-01-22T23:11:02.961Z,5.40
2023-01-22T23:19:47.151Z,5.22
2023-01-22T23:22:37.593Z,5.26
2023-01-22T23:25:15.191Z,5.12
2023-01-22T23:27:46.752Z,5.19
2023-01-22T23:30:15.465Z,5.27
2023-01-22T23:32:45.680Z,5.38
2023-01-22T23:35:18.174Z,5.40
2023-01-22T23:37:47.052Z,5.07
2023-01-22T23:40:23.928Z,4.96
2023-01-22T23:42:56.827Z,5.20
2023-01-22T23:45:35.326Z,5.48
2023-01-22T23:48:02.906Z,5.20
2023-01-22T23:50:36.770Z,4.95
2023-01-22T23:53:04.155Z,4.91
2023-01-22T23:55:34.373Z,4.79
2023-01-22T23:58:10.671Z,4.72
